Time;durP1;ratioP1;P1;durP2;ratioP2;P2;SDS_P1;SDS_P2;PMS_P1;PMS_P2;Temp;Humidity;BMP_temperature;BMP_pressure;BME280_temperature;BME280_humidity;BME280_pressure;Samples;Min_cycle;Max_cycle;Signal;HPM_P1;HPM_P2
2022/08/27 00:00:14;;;;;;;;;;;24.90;64.70;;;;;;5059018;28;19928;-68
2022/08/27 00:02:40;;;;;;;;;;;24.80;64.80;;;;;;5062432;28;19935;-69
2022/08/27 00:05:09;;;;;;;;;;;24.80;64.90;;;;;;5060859;28;19928;-69
2022/08/27 00:07:35;;;;;;;;;;;24.80;65.00;;;;;;5064850;28;20467;-68
2022/08/27 00:10:02;;;;;;;;;;;24.70;65.00;;;;;;5060858;28;19929;-69
2022/08/27 00:12:29;;;;;;;;;;;24.70;65.10;;;;;;5062147;28;20403;-69
2022/08/27 00:14:55;;;;;;;;;;;24.70;65.30;;;;;;5057691;28;20447;-69
2022/08/27 00:17:22;;;;;;;;;;;24.60;65.30;;;;;;5056743;28;20419;-69
2022/08/27 00:19:48;;;;;;;;;;;24.60;65.40;;;;;;5061095;28;19932;-69
2022/08/27 00:22:16;;;;;;;;;;;24.50;65.40;;;;;;5055737;28;20308;-69
2022/08/27 00:24:43;;;;;;;;;;;24.50;65.60;;;;;;5060270;28;19982;-69
2022/08/27 00:27:09;;;;;;;;;;;24.50;65.60;;;;;;5064586;28;20372;-69
2022/08/27 00:29:36;;;;;;;;;;;24.50;65.80;;;;;;5064698;28;19929;-69
2022/08/27 00:32:03;;;;;;;;;;;24.40;65.90;;;;;;5056808;28;20403;-69
2022/08/27 00:34:30;;;;;;;;;;;24.30;65.90;;;;;;5054856;28;19928;-69
2022/08/27 00:36:56;;;;;;;;;;;24.30;66.00;;;;;;5059272;28;19929;-69
2022/08/27 00:39:24;;;;;;;;;;;24.30;66.10;;;;;;5057789;28;20769;-69
2022/08/27 00:41:51;;;;;;;;;;;24.30;66.20;;;;;;5063601;28;19951;-69
2022/08/27 00:44:17;;;;;;;;;;;24.30;66.30;;;;;;5059369;28;19939;-69
2022/08/27 00:46:46;;;;;;;;;;;24.30;66.30;;;;;;5062570;28;20334;-69
2022/08/27 00:49:16;;;;;;;;;;;24.20;66.40;;;;;;5059059;28;20044;-69
2022/08/27 00:51:44;;;;;;;;;;;24.20;66.50;;;;;;5058187;28;19929;-69
2022/08/27 00:54:11;;;;;;;;;;;24.20;66.60;;;;;;5060931;28;19928;-69
2022/08/27 00:56:43;;;;;;;;;;;24.10;66.70;;;;;;5063511;28;19982;-69
2022/08/27 00:59:10;;;;;;;;;;;24.10;66.80;;;;;;5064405;28;19959;-69
2022/08/27 01:02:17;;;;;;;;;;;24.10;66.80;;;;;;5059546;28;19933;-69
2022/08/27 01:04:23;;;;;;;;;;;24.00;66.90;;;;;;5052103;28;20296;-69
2022/08/27 01:06:50;;;;;;;;;;;24.00;67.00;;;;;;5062210;28;19997;-68
2022/08/27 01:09:17;;;;;;;;;;;24.00;67.20;;;;;;5061421;28;19986;-69
2022/08/27 01:11:46;;;;;;;;;;;23.90;67.20;;;;;;5064232;28;19978;-69
2022/08/27 01:14:13;;;;;;;;;;;23.90;67.20;;;;;;5058975;28;19932;-69
2022/08/27 01:16:42;;;;;;;;;;;23.90;67.30;;;;;;5058574;28;20400;-69
2022/08/27 01:19:10;;;;;;;;;;;23.90;67.50;;;;;;5058617;28;19932;-69
2022/08/27 01:21:41;;;;;;;;;;;23.80;67.60;;;;;;5062160;28;19929;-69
2022/08/27 01:24:13;;;;;;;;;;;23.80;67.60;;;;;;5054276;28;19928;-69
2022/08/27 01:26:41;;;;;;;;;;;23.80;67.80;;;;;;5059295;28;20043;-69
2022/08/27 01:29:08;;;;;;;;;;;23.80;68.60;;;;;;5051727;28;19982;-69
2022/08/27 01:31:34;;;;;;;;;;;23.70;67.80;;;;;;5063349;28;19974;-68
2022/08/27 01:34:03;;;;;;;;;;;23.70;67.90;;;;;;5060551;28;19939;-69
2022/08/27 01:36:30;;;;;;;;;;;23.70;68.00;;;;;;5054944;28;19999;-68
2022/08/27 01:38:56;;;;;;;;;;;23.70;68.10;;;;;;5056698;28;19939;-68
2022/08/27 01:41:23;;;;;;;;;;;23.60;68.20;;;;;;5063264;28;20395;-69
2022/08/27 01:43:51;;;;;;;;;;;23.60;68.30;;;;;;5059106;28;19929;-69
2022/08/27 01:46:20;;;;;;;;;;;23.50;68.40;;;;;;5049312;28;19935;-69
2022/08/27 01:48:47;;;;;;;;;;;23.60;68.60;;;;;;5052713;28;19934;-69
2022/08/27 01:51:13;;;;;;;;;;;23.50;68.70;;;;;;5059671;28;19929;-69
2022/08/27 01:53:40;;;;;;;;;;;23.50;68.70;;;;;;5057375;28;19938;-68
2022/08/27 01:56:07;;;;;;;;;;;23.50;68.80;;;;;;5061459;28;19931;-68
2022/08/27 01:58:33;;;;;;;;;;;23.40;68.80;;;;;;5054980;28;19928;-68
2022/08/27 02:01:02;;;;;;;;;;;23.40;68.80;;;;;;5062469;28;20598;-69
2022/08/27 02:03:29;;;;;;;;;;;23.40;68.90;;;;;;5060177;28;19932;-68
2022/08/27 02:05:55;;;;;;;;;;;23.40;69.00;;;;;;5057698;28;20419;-69
2022/08/27 02:08:22;;;;;;;;;;;23.40;69.00;;;;;;5061708;28;19929;-69
2022/08/27 02:10:50;;;;;;;;;;;23.40;69.10;;;;;;5057415;28;19936;-68
2022/08/27 02:13:17;;;;;;;;;;;23.30;69.10;;;;;;5053866;28;19928;-68
2022/08/27 02:15:44;;;;;;;;;;;23.30;69.30;;;;;;5059866;28;19928;-68
2022/08/27 02:18:12;;;;;;;;;;;23.30;69.30;;;;;;5057895;28;20638;-68
2022/08/27 02:20:39;;;;;;;;;;;23.30;69.30;;;;;;5051183;28;20059;-68
2022/08/27 02:23:06;;;;;;;;;;;23.20;69.40;;;;;;5061659;28;19928;-68
2022/08/27 02:25:33;;;;;;;;;;;23.20;69.50;;;;;;5052412;28;19952;-69
2022/08/27 02:28:00;;;;;;;;;;;23.20;69.60;;;;;;5061372;28;20023;-68
2022/08/27 02:30:27;;;;;;;;;;;23.20;69.70;;;;;;5058131;28;19943;-68
2022/08/27 02:32:53;;;;;;;;;;;26.00;71.20;;;;;;5057181;28;19928;-69
2022/08/27 02:35:22;;;;;;;;;;;23.00;69.20;;;;;;5051623;28;20806;-69
2022/08/27 02:37:48;;;;;;;;;;;23.10;69.80;;;;;;5056049;28;19986;-68
2022/08/27 02:40:16;;;;;;;;;;;23.00;69.80;;;;;;5055765;28;20554;-68
2022/08/27 02:42:43;;;;;;;;;;;23.00;69.90;;;;;;5054667;28;19975;-69
2022/08/27 02:45:11;;;;;;;;;;;23.00;70.00;;;;;;5060990;28;19932;-69
2022/08/27 02:47:37;;;;;;;;;;;23.00;70.00;;;;;;5056313;28;20466;-68
2022/08/27 02:50:04;;;;;;;;;;;23.00;70.10;;;;;;5060499;28;19929;-68
2022/08/27 02:52:32;;;;;;;;;;;23.00;70.20;;;;;;5062296;28;19928;-69
2022/08/27 02:54:58;;;;;;;;;;;22.90;70.30;;;;;;5055470;28;20118;-68
2022/08/27 02:57:25;;;;;;;;;;;22.90;70.40;;;;;;5057687;28;19959;-69
2022/08/27 02:59:52;;;;;;;;;;;22.90;70.40;;;;;;5055618;28;19936;-69
2022/08/27 03:02:19;;;;;;;;;;;22.90;70.50;;;;;;5055181;28;20404;-69
2022/08/27 03:04:46;;;;;;;;;;;22.90;70.50;;;;;;5058501;28;19929;-68
2022/08/27 03:07:13;;;;;;;;;;;22.80;70.50;;;;;;5051237;28;19925;-69
2022/08/27 03:09:40;;;;;;;;;;;22.80;70.60;;;;;;5053818;28;20424;-69
2022/08/27 03:12:08;;;;;;;;;;;22.80;70.60;;;;;;5050698;28;19936;-69
2022/08/27 03:14:34;;;;;;;;;;;22.80;70.70;;;;;;5058752;28;20023;-69
2022/08/27 03:18:16;;;;;;;;;;;22.70;70.70;;;;;;5053176;28;20761;-69
2022/08/27 03:19:46;;;;;;;;;;;22.70;70.80;;;;;;5059881;28;19935;-69
2022/08/27 03:22:13;;;;;;;;;;;22.70;70.90;;;;;;5056970;28;19924;-69
2022/08/27 03:24:41;;;;;;;;;;;22.70;71.10;;;;;;5055614;28;19928;-69
2022/08/27 03:27:07;;;;;;;;;;;22.70;71.10;;;;;;5062432;28;19959;-69
2022/08/27 03:29:35;;;;;;;;;;;22.60;71.00;;;;;;5061170;28;20517;-68
2022/08/27 03:32:03;;;;;;;;;;;22.70;71.10;;;;;;5050853;28;19929;-69
2022/08/27 03:34:29;;;;;;;;;;;22.60;71.20;;;;;;5061518;28;19968;-69
2022/08/27 03:36:56;;;;;;;;;;;22.60;71.30;;;;;;5047617;28;19929;-69
2022/08/27 03:39:23;;;;;;;;;;;22.60;71.30;;;;;;5054909;28;19929;-68
2022/08/27 03:41:51;;;;;;;;;;;22.50;71.40;;;;;;5050839;28;20590;-69
2022/08/27 03:44:17;;;;;;;;;;;22.60;71.60;;;;;;5052370;28;20377;-69
2022/08/27 03:46:44;;;;;;;;;;;22.50;71.60;;;;;;5048533;28;19932;-69
2022/08/27 03:49:11;;;;;;;;;;;22.50;71.60;;;;;;5056151;28;19933;-69
2022/08/27 03:51:38;;;;;;;;;;;22.50;71.80;;;;;;5055884;28;20066;-69
2022/08/27 03:54:05;;;;;;;;;;;22.50;71.80;;;;;;5054711;28;19933;-69
2022/08/27 03:56:37;;;;;;;;;;;22.50;71.90;;;;;;5053016;28;19948;-69
2022/08/27 03:59:06;;;;;;;;;;;22.50;71.90;;;;;;5061751;28;19959;-68
2022/08/27 04:01:32;;;;;;;;;;;22.40;71.90;;;;;;5061416;28;19928;-69
2022/08/27 04:03:59;;;;;;;;;;;22.40;72.00;;;;;;5050980;28;19932;-69
2022/08/27 04:06:27;;;;;;;;;;;22.40;72.00;;;;;;5058095;28;19928;-69
2022/08/27 04:08:53;;;;;;;;;;;22.40;72.10;;;;;;5051750;28;19928;-69
2022/08/27 04:11:20;;;;;;;;;;;22.40;72.20;;;;;;5056712;28;20666;-69
2022/08/27 04:13:47;;;;;;;;;;;22.40;72.20;;;;;;5047498;28;20591;-69
2022/08/27 04:16:15;;;;;;;;;;;22.30;72.20;;;;;;5055943;28;20427;-69
2022/08/27 04:18:42;;;;;;;;;;;22.30;72.20;;;;;;5057699;28;19955;-69
2022/08/27 04:21:12;;;;;;;;;;;22.40;72.30;;;;;;5061314;28;20422;-69
2022/08/27 04:23:39;;;;;;;;;;;22.30;72.30;;;;;;5056427;28;20273;-69
2022/08/27 04:26:06;;;;;;;;;;;22.30;72.30;;;;;;5061110;28;19963;-69
2022/08/27 04:28:32;;;;;;;;;;;22.30;72.40;;;;;;5061100;28;20002;-69
2022/08/27 04:30:59;;;;;;;;;;;22.30;72.40;;;;;;5056060;28;20005;-69
2022/08/27 04:33:26;;;;;;;;;;;22.20;72.40;;;;;;5049242;28;19932;-69
2022/08/27 04:35:57;;;;;;;;;;;22.30;72.50;;;;;;5056673;28;19933;-69
2022/08/27 04:38:23;;;;;;;;;;;22.30;72.60;;;;;;5056909;28;19982;-69
2022/08/27 04:43:34;;;;;;;;;;;22.20;72.50;;;;;;5054858;28;19932;-69
2022/08/27 04:46:00;;;;;;;;;;;22.20;72.50;;;;;;5063272;28;19929;-69
2022/08/27 04:48:28;;;;;;;;;;;22.20;72.70;;;;;;5064366;28;20380;-69
2022/08/27 04:50:55;;;;;;;;;;;22.20;72.80;;;;;;5060152;28;19936;-69
2022/08/27 04:53:22;;;;;;;;;;;22.20;72.80;;;;;;5060086;28;19943;-70
2022/08/27 04:55:50;;;;;;;;;;;22.10;72.80;;;;;;5060833;28;19924;-69
2022/08/27 04:58:17;;;;;;;;;;;22.10;72.80;;;;;;5064652;28;19968;-69
2022/08/27 05:00:45;;;;;;;;;;;22.10;72.90;;;;;;5063395;28;20939;-69
2022/08/27 05:03:12;;;;;;;;;;;22.10;72.80;;;;;;5057763;28;20011;-69
2022/08/27 05:05:40;;;;;;;;;;;22.10;72.90;;;;;;5063554;28;20022;-69
2022/08/27 05:08:06;;;;;;;;;;;22.10;72.90;;;;;;5060654;28;19933;-70
2022/08/27 05:10:39;;;;;;;;;;;22.10;72.90;;;;;;5065917;28;19928;-69
2022/08/27 05:13:05;;;;;;;;;;;22.10;72.90;;;;;;5065798;28;19940;-69
2022/08/27 05:15:32;;;;;;;;;;;22.10;73.10;;;;;;5058885;28;19935;-69
2022/08/27 05:17:59;;;;;;;;;;;22.00;73.00;;;;;;5057882;28;21605;-69
2022/08/27 05:20:26;;;;;;;;;;;22.00;73.10;;;;;;5058361;28;19932;-69
2022/08/27 05:22:54;;;;;;;;;;;22.00;73.10;;;;;;5054699;28;19939;-69
2022/08/27 05:25:21;;;;;;;;;;;22.00;73.10;;;;;;5060595;28;20019;-69
2022/08/27 05:27:47;;;;;;;;;;;22.00;73.20;;;;;;5072410;28;20307;-70
2022/08/27 05:30:14;;;;;;;;;;;22.00;73.90;;;;;;5059680;28;19929;-69
2022/08/27 05:32:41;;;;;;;;;;;22.00;73.20;;;;;;5062903;28;20364;-69
2022/08/27 05:35:09;;;;;;;;;;;22.00;73.20;;;;;;5061871;28;19939;-69
2022/08/27 05:37:35;;;;;;;;;;;22.00;73.40;;;;;;5064231;28;20466;-70
2022/08/27 05:40:04;;;;;;;;;;;22.00;73.30;;;;;;5056413;28;19932;-69
2022/08/27 05:42:31;;;;;;;;;;;22.00;73.40;;;;;;5068470;28;20439;-69
2022/08/27 05:44:58;;;;;;;;;;;22.00;73.30;;;;;;5054197;28;19929;-69
2022/08/27 05:47:24;;;;;;;;;;;22.00;73.30;;;;;;5058630;28;19951;-69
2022/08/27 05:49:51;;;;;;;;;;;22.00;73.40;;;;;;5060387;28;20605;-69
2022/08/27 05:52:18;;;;;;;;;;;21.90;73.30;;;;;;5057150;28;19954;-69
2022/08/27 05:54:44;;;;;;;;;;;21.90;73.50;;;;;;5061785;28;19947;-69
2022/08/27 05:57:12;;;;;;;;;;;22.00;73.60;;;;;;5054859;28;20443;-69
2022/08/27 06:02:35;;;;;;;;;;;22.00;73.60;;;;;;5025856;28;20697;-68
2022/08/27 06:05:02;;;;;;;;;;;22.00;73.80;;;;;;5061662;28;19928;-70
2022/08/27 06:07:30;;;;;;;;;;;21.90;73.70;;;;;;5063606;28;20471;-69
2022/08/27 06:09:57;;;;;;;;;;;21.90;73.70;;;;;;5052118;28;20070;-69
2022/08/27 06:12:25;;;;;;;;;;;21.90;73.70;;;;;;5063332;28;19951;-69
2022/08/27 06:14:52;;;;;;;;;;;21.90;73.80;;;;;;5054565;28;20346;-69
2022/08/27 06:17:19;;;;;;;;;;;21.90;73.90;;;;;;5061133;28;20601;-69
2022/08/27 06:19:45;;;;;;;;;;;21.90;73.90;;;;;;5060179;28;19936;-68
2022/08/27 06:22:12;;;;;;;;;;;21.90;73.90;;;;;;5057660;28;19932;-69
2022/08/27 06:24:39;;;;;;;;;;;21.90;73.90;;;;;;5055687;28;19928;-70
2022/08/27 06:27:05;;;;;;;;;;;21.90;74.00;;;;;;5062425;28;20015;-70
2022/08/27 06:29:33;;;;;;;;;;;21.90;74.00;;;;;;5062819;28;20067;-69
2022/08/27 06:32:00;;;;;;;;;;;21.90;74.10;;;;;;5060553;28;19963;-69
2022/08/27 06:34:27;;;;;;;;;;;21.90;74.10;;;;;;5060769;28;20014;-70
2022/08/27 06:36:53;;;;;;;;;;;21.90;74.20;;;;;;5061062;28;19928;-69
2022/08/27 06:39:20;;;;;;;;;;;21.90;74.20;;;;;;5061217;28;20538;-69
2022/08/27 06:41:49;;;;;;;;;;;21.90;74.30;;;;;;5054734;28;19936;-69
2022/08/27 06:44:15;;;;;;;;;;;21.90;74.20;;;;;;5057094;28;20032;-70
2022/08/27 06:46:43;;;;;;;;;;;21.80;74.10;;;;;;5059305;28;19928;-70
2022/08/27 06:49:10;;;;;;;;;;;21.90;74.20;;;;;;5060675;28;19928;-70
2022/08/27 06:51:38;;;;;;;;;;;21.90;74.30;;;;;;5056992;28;20742;-70
2022/08/27 06:54:06;;;;;;;;;;;21.90;74.30;;;;;;5055007;28;19940;-69
2022/08/27 06:56:33;;;;;;;;;;;21.80;74.30;;;;;;5054008;28;19939;-69
2022/08/27 06:59:00;;;;;;;;;;;21.90;74.40;;;;;;5060381;28;19964;-69
2022/08/27 07:01:28;;;;;;;;;;;21.80;74.40;;;;;;5056296;28;19928;-70
2022/08/27 07:03:56;;;;;;;;;;;21.90;74.50;;;;;;5056841;28;19944;-70
2022/08/27 07:06:23;;;;;;;;;;;21.90;74.50;;;;;;5057575;28;19928;-70
2022/08/27 07:08:49;;;;;;;;;;;21.90;74.50;;;;;;5056589;28;19937;-69
2022/08/27 07:11:16;;;;;;;;;;;21.90;74.50;;;;;;5063718;28;20406;-69
2022/08/27 07:13:42;;;;;;;;;;;21.90;74.60;;;;;;5066830;28;20376;-70
2022/08/27 07:16:14;;;;;;;;;;;21.80;74.50;;;;;;5063373;28;19979;-70
2022/08/27 07:18:41;;;;;;;;;;;21.80;74.60;;;;;;5058884;28;19933;-70
2022/08/27 07:21:09;;;;;;;;;;;21.90;74.60;;;;;;5064395;28;19928;-69
2022/08/27 07:23:36;;;;;;;;;;;21.90;74.60;;;;;;5057521;28;19932;-69
2022/08/27 07:26:06;;;;;;;;;;;21.80;74.60;;;;;;5057579;28;20362;-70
2022/08/27 07:28:33;;;;;;;;;;;21.90;74.70;;;;;;5061179;28;20019;-70
2022/08/27 07:31:00;;;;;;;;;;;21.90;74.70;;;;;;5058101;28;19935;-69
2022/08/27 07:33:26;;;;;;;;;;;21.90;74.60;;;;;;5061261;28;19928;-69
2022/08/27 07:35:53;;;;;;;;;;;21.90;74.70;;;;;;5060277;28;19932;-70
2022/08/27 07:38:21;;;;;;;;;;;21.90;74.70;;;;;;5057649;28;19932;-70
2022/08/27 07:40:48;;;;;;;;;;;21.90;74.70;;;;;;5057999;28;19924;-70
2022/08/27 07:46:00;;;;;;;;;;;21.90;74.60;;;;;;5056382;28;19928;-70
2022/08/27 07:48:28;;;;;;;;;;;21.80;74.60;;;;;;5056708;28;19940;-70
2022/08/27 07:50:54;;;;;;;;;;;21.90;74.60;;;;;;5059089;28;20003;-70
2022/08/27 07:53:22;;;;;;;;;;;21.90;74.60;;;;;;5056207;28;19932;-70
2022/08/27 07:55:49;;;;;;;;;;;21.90;74.60;;;;;;5059150;28;20452;-70
2022/08/27 07:58:15;;;;;;;;;;;21.90;74.60;;;;;;5057266;28;19928;-70
2022/08/27 08:00:42;;;;;;;;;;;21.90;74.50;;;;;;5064902;28;19935;-69
2022/08/27 08:03:09;;;;;;;;;;;21.90;74.50;;;;;;5062185;28;20011;-71
2022/08/27 08:05:35;;;;;;;;;;;21.90;74.50;;;;;;5065031;28;19928;-70
2022/08/27 08:08:03;;;;;;;;;;;21.90;74.50;;;;;;5064316;28;19940;-70
2022/08/27 08:10:31;;;;;;;;;;;21.90;74.40;;;;;;5062317;28;20500;-70
2022/08/27 08:12:57;;;;;;;;;;;21.90;74.40;;;;;;5055657;28;19928;-70
2022/08/27 08:15:24;;;;;;;;;;;21.90;74.50;;;;;;5065451;28;19936;-70
2022/08/27 08:17:50;;;;;;;;;;;21.90;74.40;;;;;;5058012;28;19940;-70
2022/08/27 08:20:18;;;;;;;;;;;21.90;74.40;;;;;;5058412;28;19937;-69
2022/08/27 08:22:45;;;;;;;;;;;21.90;74.30;;;;;;5053708;28;20438;-70
2022/08/27 08:25:12;;;;;;;;;;;21.90;74.20;;;;;;5061039;28;19931;-70
2022/08/27 08:27:41;;;;;;;;;;;22.00;74.20;;;;;;5062640;28;19928;-70
2022/08/27 08:30:08;;;;;;;;;;;22.00;74.20;;;;;;5055266;28;20035;-70
2022/08/27 08:32:35;;;;;;;;;;;22.00;74.20;;;;;;5059684;28;19932;-70
2022/08/27 08:35:01;;;;;;;;;;;22.00;74.20;;;;;;5057850;28;19932;-70
2022/08/27 08:37:28;;;;;;;;;;;22.00;74.10;;;;;;5062591;28;19929;-70
2022/08/27 08:39:54;;;;;;;;;;;22.00;74.10;;;;;;5060050;28;20323;-70
2022/08/27 08:42:26;;;;;;;;;;;22.00;74.80;;;;;;5055287;28;20418;-70
2022/08/27 08:44:54;;;;;;;;;;;22.00;74.10;;;;;;5058755;28;20703;-70
2022/08/27 08:47:22;;;;;;;;;;;22.00;74.00;;;;;;5056565;28;19936;-70
2022/08/27 08:49:51;;;;;;;;;;;22.00;74.10;;;;;;5061728;28;19928;-70
2022/08/27 08:52:21;;;;;;;;;;;22.00;74.00;;;;;;5057713;28;20622;-70
2022/08/27 08:54:49;;;;;;;;;;;22.00;74.00;;;;;;5055048;28;20307;-70
2022/08/27 08:57:19;;;;;;;;;;;22.00;73.90;;;;;;5064511;28;20383;-70
2022/08/27 08:59:51;;;;;;;;;;;22.10;74.00;;;;;;5063943;28;19936;-69
2022/08/27 09:02:19;;;;;;;;;;;22.10;74.00;;;;;;5063239;28;19936;-70
2022/08/27 09:04:45;;;;;;;;;;;22.10;74.00;;;;;;5059127;28;20415;-68
2022/08/27 09:07:15;;;;;;;;;;;22.10;74.00;;;;;;5062856;28;19936;-70
2022/08/27 09:09:45;;;;;;;;;;;22.10;73.90;;;;;;5055165;28;20462;-70
2022/08/27 09:12:14;;;;;;;;;;;22.10;74.70;;;;;;5060528;28;19928;-70
2022/08/27 09:14:44;;;;;;;;;;;22.10;73.90;;;;;;5062939;28;19933;-70
2022/08/27 09:17:10;;;;;;;;;;;22.10;73.80;;;;;;5055068;28;20518;-70
2022/08/27 09:19:38;;;;;;;;;;;22.10;73.80;;;;;;5061825;28;19939;-70
2022/08/27 09:22:10;;;;;;;;;;;22.10;73.80;;;;;;5060146;28;19989;-70
2022/08/27 09:24:45;;;;;;;;;;;22.20;73.80;;;;;;5057254;28;19928;-70
2022/08/27 09:27:13;;;;;;;;;;;22.10;73.70;;;;;;5063568;28;19959;-70
2022/08/27 09:29:47;;;;;;;;;;;22.20;73.80;;;;;;5057718;28;20858;-70
2022/08/27 09:32:13;;;;;;;;;;;22.10;73.70;;;;;;5059944;28;20027;-70
2022/08/27 09:34:42;;;;;;;;;;;22.20;73.70;;;;;;5057784;28;19944;-70
2022/08/27 09:37:10;;;;;;;;;;;22.20;73.60;;;;;;5062891;28;20610;-70
2022/08/27 09:39:43;;;;;;;;;;;22.20;73.50;;;;;;5059539;28;20036;-70
2022/08/27 09:42:20;;;;;;;;;;;22.20;73.50;;;;;;5056631;28;19932;-70
2022/08/27 09:44:47;;;;;;;;;;;22.20;73.50;;;;;;5061944;28;19939;-69
2022/08/27 09:47:14;;;;;;;;;;;22.30;73.60;;;;;;5056465;28;19929;-70
2022/08/27 09:49:42;;;;;;;;;;;22.30;73.50;;;;;;5058785;28;20019;-70
2022/08/27 09:52:10;;;;;;;;;;;22.30;73.30;;;;;;5057624;28;19928;-70
2022/08/27 09:54:41;;;;;;;;;;;22.30;73.30;;;;;;5062044;28;20014;-69
2022/08/27 09:57:08;;;;;;;;;;;22.30;73.20;;;;;;5062164;28;19940;-70
2022/08/27 09:59:36;;;;;;;;;;;22.30;73.20;;;;;;5057847;28;19990;-70
2022/08/27 10:02:04;;;;;;;;;;;22.30;73.00;;;;;;5059283;28;19929;-70
2022/08/27 10:04:34;;;;;;;;;;;22.40;73.00;;;;;;5060714;28;19928;-70
2022/08/27 10:07:11;;;;;;;;;;;22.40;73.00;;;;;;5061926;28;19925;-69
2022/08/27 10:09:42;;;;;;;;;;;22.40;72.90;;;;;;5052449;28;19925;-70
2022/08/27 10:12:12;;;;;;;;;;;22.40;72.90;;;;;;5062123;28;20383;-70
2022/08/27 10:14:42;;;;;;;;;;;22.40;72.80;;;;;;5055644;28;19928;-71
2022/08/27 10:17:12;;;;;;;;;;;22.40;72.90;;;;;;5060046;28;20017;-70
2022/08/27 10:19:45;;;;;;;;;;;22.50;72.90;;;;;;5061674;28;19936;-70
2022/08/27 10:22:20;;;;;;;;;;;22.50;72.90;;;;;;5057263;28;19928;-70
2022/08/27 10:24:53;;;;;;;;;;;22.50;72.90;;;;;;5057676;28;20494;-69
2022/08/27 10:27:25;;;;;;;;;;;22.50;72.70;;;;;;5061680;28;19932;-70
2022/08/27 10:29:55;;;;;;;;;;;22.50;72.70;;;;;;5055090;28;19933;-70
2022/08/27 10:32:27;;;;;;;;;;;22.50;72.70;;;;;;5058808;28;20546;-70
2022/08/27 10:35:01;;;;;;;;;;;22.60;72.60;;;;;;5061489;28;19936;-70
2022/08/27 10:37:34;;;;;;;;;;;22.60;72.70;;;;;;5060907;28;19935;-70
2022/08/27 10:40:06;;;;;;;;;;;22.60;72.70;;;;;;5057428;28;19929;-70
2022/08/27 10:42:35;;;;;;;;;;;22.60;72.70;;;;;;5061782;28;19924;-70
2022/08/27 10:45:08;;;;;;;;;;;22.60;72.70;;;;;;5055857;28;19929;-70
2022/08/27 10:47:48;;;;;;;;;;;22.60;72.50;;;;;;5052329;28;19940;-70
2022/08/27 10:50:17;;;;;;;;;;;22.70;72.70;;;;;;5057257;28;19928;-70
2022/08/27 10:52:47;;;;;;;;;;;22.70;72.60;;;;;;5054487;28;20031;-70
2022/08/27 10:55:19;;;;;;;;;;;22.60;72.60;;;;;;5055570;28;19928;-70
2022/08/27 10:57:55;;;;;;;;;;;22.70;72.70;;;;;;5060771;28;20031;-70
2022/08/27 11:00:22;;;;;;;;;;;22.70;72.80;;;;;;5056481;28;19935;-70
2022/08/27 11:02:52;;;;;;;;;;;22.70;72.80;;;;;;5055022;28;19928;-70
2022/08/27 11:05:20;;;;;;;;;;;22.70;72.90;;;;;;5054081;28;20035;-70
2022/08/27 11:07:51;;;;;;;;;;;22.70;72.70;;;;;;5059692;28;19929;-70
2022/08/27 11:10:22;;;;;;;;;;;22.70;72.80;;;;;;5052811;28;19951;-69
2022/08/27 11:12:49;;;;;;;;;;;22.70;72.70;;;;;;5049912;28;20400;-69
2022/08/27 11:15:18;;;;;;;;;;;22.70;72.60;;;;;;5060996;28;19939;-70
2022/08/27 11:17:49;;;;;;;;;;;22.80;72.80;;;;;;5052256;28;19929;-70
2022/08/27 11:20:18;;;;;;;;;;;22.70;72.80;;;;;;5057460;28;19928;-70
2022/08/27 11:22:47;;;;;;;;;;;22.70;72.70;;;;;;5060928;28;19990;-70
2022/08/27 11:25:19;;;;;;;;;;;22.70;72.80;;;;;;5058142;28;19939;-70
2022/08/27 11:27:47;;;;;;;;;;;22.80;72.80;;;;;;5061195;28;20304;-70
2022/08/27 11:30:18;;;;;;;;;;;22.80;72.80;;;;;;5057404;28;19932;-69
2022/08/27 11:32:52;;;;;;;;;;;22.80;72.90;;;;;;5057954;28;19928;-70
2022/08/27 11:35:22;;;;;;;;;;;22.80;73.00;;;;;;5057385;28;20458;-70
2022/08/27 11:38:06;;;;;;;;;;;22.80;73.00;;;;;;5063861;28;19933;-70
2022/08/27 11:40:48;;;;;;;;;;;22.80;73.00;;;;;;5062416;28;19928;-70
2022/08/27 11:43:16;;;;;;;;;;;22.80;73.00;;;;;;5061121;28;19932;-69
2022/08/27 11:45:52;;;;;;;;;;;22.80;73.00;;;;;;5063455;28;20683;-70
2022/08/27 11:48:22;;;;;;;;;;;22.80;73.00;;;;;;5063932;28;19939;-70
2022/08/27 11:50:53;;;;;;;;;;;22.80;73.50;;;;;;5063217;28;19935;-70
2022/08/27 11:53:23;;;;;;;;;;;22.80;73.40;;;;;;5064505;28;19936;-70
2022/08/27 11:55:52;;;;;;;;;;;22.80;73.20;;;;;;5061876;28;19929;-70
2022/08/27 11:58:24;;;;;;;;;;;22.80;73.30;;;;;;5065031;28;19936;-70
2022/08/27 12:00:52;;;;;;;;;;;22.80;73.30;;;;;;5062894;28;19929;-70
2022/08/27 12:03:24;;;;;;;;;;;22.80;73.20;;;;;;5061776;28;19979;-70
2022/08/27 12:06:05;;;;;;;;;;;22.90;73.30;;;;;;5060099;28;19928;-70
2022/08/27 12:08:33;;;;;;;;;;;22.90;73.40;;;;;;5058213;28;19929;-70
2022/08/27 12:11:15;;;;;;;;;;;22.90;73.20;;;;;;5056583;28;19928;-70
2022/08/27 12:13:44;;;;;;;;;;;22.90;73.30;;;;;;5063080;28;19997;-70
2022/08/27 12:16:15;;;;;;;;;;;22.90;73.30;;;;;;5060629;28;19929;-70
2022/08/27 12:18:51;;;;;;;;;;;22.90;73.20;;;;;;5063815;28;19934;-70
2022/08/27 12:21:22;;;;;;;;;;;22.90;73.20;;;;;;5062757;28;19935;-70
2022/08/27 12:23:56;;;;;;;;;;;22.90;73.20;;;;;;5052852;28;19935;-70
2022/08/27 12:26:33;;;;;;;;;;;22.90;73.30;;;;;;5063519;28;19933;-70
2022/08/27 12:29:22;;;;;;;;;;;22.90;73.20;;;;;;5063911;28;19928;-70
2022/08/27 12:31:48;;;;;;;;;;;22.90;73.10;;;;;;5056756;28;19974;-70
2022/08/27 12:34:16;;;;;;;;;;;22.90;73.20;;;;;;5058468;28;20529;-70
2022/08/27 12:36:45;;;;;;;;;;;22.90;73.10;;;;;;5063520;28;19929;-69
2022/08/27 12:39:14;;;;;;;;;;;22.90;73.00;;;;;;5058205;28;19982;-70
2022/08/27 12:41:44;;;;;;;;;;;22.90;73.10;;;;;;5054277;28;19982;-70
2022/08/27 12:44:12;;;;;;;;;;;22.90;73.00;;;;;;5063390;28;19929;-70
2022/08/27 12:46:45;;;;;;;;;;;22.90;73.00;;;;;;5062654;28;19963;-70
2022/08/27 12:49:11;;;;;;;;;;;22.90;73.00;;;;;;5058772;28;20024;-70
2022/08/27 12:51:39;;;;;;;;;;;23.00;73.10;;;;;;5064612;28;19932;-70
2022/08/27 12:54:08;;;;;;;;;;;22.90;73.00;;;;;;5055404;28;19928;-70
2022/08/27 12:56:44;;;;;;;;;;;23.00;73.00;;;;;;5061161;28;19939;-70
2022/08/27 12:59:22;;;;;;;;;;;23.00;73.00;;;;;;5062961;28;19928;-70
2022/08/27 13:01:57;;;;;;;;;;;23.00;72.90;;;;;;5057831;28;19929;-70
2022/08/27 13:04:24;;;;;;;;;;;23.00;73.00;;;;;;5055933;28;19928;-71
2022/08/27 13:06:51;;;;;;;;;;;23.00;72.80;;;;;;5063432;28;19935;-70
2022/08/27 13:09:25;;;;;;;;;;;23.00;72.80;;;;;;5058359;28;19928;-70
2022/08/27 13:11:55;;;;;;;;;;;23.00;72.90;;;;;;5063419;28;19932;-70
2022/08/27 13:14:24;;;;;;;;;;;23.00;73.10;;;;;;5059941;28;19928;-70
2022/08/27 13:16:52;;;;;;;;;;;23.00;73.10;;;;;;5056372;28;19950;-70
2022/08/27 13:19:21;;;;;;;;;;;22.90;73.00;;;;;;5057678;28;19935;-70
2022/08/27 13:21:49;;;;;;;;;;;23.00;73.00;;;;;;5061311;28;19928;-70
2022/08/27 13:24:19;;;;;;;;;;;22.90;73.00;;;;;;5057056;28;20746;-69
2022/08/27 13:26:48;;;;;;;;;;;22.90;72.90;;;;;;5063596;28;19925;-70
2022/08/27 13:29:14;;;;;;;;;;;22.90;72.80;;;;;;5058019;28;19939;-70
2022/08/27 13:31:42;;;;;;;;;;;23.00;72.90;;;;;;5062027;28;19951;-70
2022/08/27 13:34:11;;;;;;;;;;;23.00;72.90;;;;;;5057919;28;19928;-70
2022/08/27 13:36:51;;;;;;;;;;;23.00;72.90;;;;;;5059238;28;19928;-70
2022/08/27 13:39:17;;;;;;;;;;;22.90;73.00;;;;;;5055400;28;19928;-70
2022/08/27 13:41:46;;;;;;;;;;;23.00;72.90;;;;;;5055962;28;19943;-71
2022/08/27 13:44:18;;;;;;;;;;;23.00;73.00;;;;;;5055841;28;20673;-71
2022/08/27 13:46:48;;;;;;;;;;;23.00;72.90;;;;;;5054753;28;20323;-71
2022/08/27 13:49:16;;;;;;;;;;;22.90;72.80;;;;;;5054273;28;19986;-71
2022/08/27 13:51:44;;;;;;;;;;;23.00;72.90;;;;;;5057091;28;19932;-71
2022/08/27 13:54:14;;;;;;;;;;;22.90;73.00;;;;;;5060818;28;19929;-71
2022/08/27 13:56:54;;;;;;;;;;;22.90;72.90;;;;;;5057969;28;19928;-71
2022/08/27 13:59:23;;;;;;;;;;;22.90;73.00;;;;;;5056250;28;19964;-70
2022/08/27 14:01:57;;;;;;;;;;;22.90;72.80;;;;;;5058650;28;20304;-71
2022/08/27 14:04:26;;;;;;;;;;;22.90;72.90;;;;;;5056347;28;19935;-71
2022/08/27 14:06:53;;;;;;;;;;;23.00;73.00;;;;;;5062217;28;19929;-71
2022/08/27 14:09:24;;;;;;;;;;;22.90;72.90;;;;;;5060522;28;20475;-71
2022/08/27 14:11:57;;;;;;;;;;;23.00;73.10;;;;;;5061202;28;20010;-71
2022/08/27 14:14:24;;;;;;;;;;;23.00;73.10;;;;;;5050056;28;19935;-71
2022/08/27 14:16:58;;;;;;;;;;;23.00;73.30;;;;;;5059384;28;19928;-71
2022/08/27 14:19:25;;;;;;;;;;;23.00;73.40;;;;;;5055752;28;19928;-71
2022/08/27 14:21:52;;;;;;;;;;;23.00;73.40;;;;;;5059672;28;19935;-71
2022/08/27 14:24:18;;;;;;;;;;;23.00;73.40;;;;;;5056068;28;19933;-70
2022/08/27 14:26:48;;;;;;;;;;;23.00;73.40;;;;;;5061873;28;20297;-71
2022/08/27 14:29:14;;;;;;;;;;;23.00;73.50;;;;;;5058562;28;19966;-70
2022/08/27 14:31:41;;;;;;;;;;;23.00;73.50;;;;;;5055229;28;20387;-70